Time;durP1;ratioP1;P1;durP2;ratioP2;P2;SDS_P1;SDS_P2;PMS_P1;PMS_P2;Temp;Humidity;BMP_temperature;BMP_pressure;BME280_temperature;BME280_humidity;BME280_pressure;Samples;Min_cycle;Max_cycle;Signal;HPM_P1;HPM_P2
2021/03/22 00:01:17;;;;;;;11.97;6.60;;;;;;;4.67;100.00;100777.78;5065413;28;20407;-73
2021/03/22 00:03:43;;;;;;;11.67;7.90;;;;;;;4.61;100.00;100772.84;5036116;28;20470;-73
2021/03/22 00:06:10;;;;;;;10.83;7.27;;;;;;;4.64;100.00;100777.91;5067191;28;20430;-78
2021/03/22 00:08:36;;;;;;;10.33;7.27;;;;;;;4.53;100.00;100787.06;5054225;28;20466;-78
2021/03/22 00:11:02;;;;;;;12.17;7.80;;;;;;;4.60;100.00;100781.53;5073057;28;20807;-78
2021/03/22 00:13:28;;;;;;;11.90;8.00;;;;;;;4.70;100.00;100785.47;5054897;28;20164;-77
2021/03/22 00:15:57;;;;;;;15.03;7.60;;;;;;;4.65;100.00;100783.97;5072958;28;20410;-76
2021/03/22 00:18:26;;;;;;;11.23;7.93;;;;;;;4.61;100.00;100779.78;5073023;28;20167;-77
2021/03/22 00:20:52;;;;;;;10.43;7.97;;;;;;;4.62;100.00;100765.88;5071946;28;20399;-78
2021/03/22 00:23:18;;;;;;;12.17;8.30;;;;;;;4.60;100.00;100773.72;5071650;28;20447;-76
2021/03/22 00:25:44;;;;;;;13.17;7.83;;;;;;;4.68;100.00;100765.59;5073193;28;20391;-78
2021/03/22 00:28:11;;;;;;;10.70;7.50;;;;;;;4.57;100.00;100776.47;5072709;28;20188;-78
2021/03/22 00:30:40;;;;;;;12.70;8.00;;;;;;;4.60;100.00;100747.72;5072667;28;20403;-76
2021/03/22 00:33:07;;;;;;;11.47;7.90;;;;;;;4.59;100.00;100738.22;5072590;28;20972;-79
2021/03/22 00:35:34;;;;;;;15.80;7.97;;;;;;;4.44;100.00;100739.69;5072336;28;20464;-80
2021/03/22 00:38:00;;;;;;;10.60;8.23;;;;;;;4.56;100.00;100740.13;5073067;28;20395;-79
2021/03/22 00:40:30;;;;;;;12.10;8.03;;;;;;;4.54;100.00;100736.75;5072567;28;20432;-82
2021/03/22 00:42:56;;;;;;;11.53;7.83;;;;;;;4.55;100.00;100728.88;5072424;28;20411;-80
2021/03/22 00:45:24;;;;;;;10.00;7.93;;;;;;;4.55;100.00;100728.88;5072170;28;20399;-72
2021/03/22 00:47:50;;;;;;;11.13;7.83;;;;;;;4.51;100.00;100716.88;5072298;28;20686;-78
2021/03/22 00:50:40;;;;;;;15.20;7.57;;;;;;;4.50;100.00;100714.34;5072171;28;20426;-74
2021/03/22 00:53:08;;;;;;;13.17;8.20;;;;;;;4.55;100.00;100704.59;5071622;28;20842;-79
2021/03/22 00:55:34;;;;;;;12.17;7.30;;;;;;;4.47;100.00;100702.34;5067177;28;20513;-77
2021/03/22 00:58:00;;;;;;;10.80;7.17;;;;;;;4.52;100.00;100699.53;5070221;28;20510;-80
2021/03/22 01:00:42;;;;;;;12.47;7.50;;;;;;;4.46;100.00;100692.84;5071733;28;20418;-74
2021/03/22 01:03:12;;;;;;;13.33;8.90;;;;;;;4.43;100.00;100677.34;5071933;28;20878;-75
2021/03/22 01:05:37;;;;;;;11.17;8.10;;;;;;;4.48;100.00;100665.00;5067875;28;20431;-74
2021/03/22 01:08:03;;;;;;;9.50;7.97;;;;;;;4.52;100.00;100655.28;5071060;28;20467;-77
2021/03/22 01:10:44;;;;;;;9.87;7.33;;;;;;;4.48;100.00;100653.75;5071149;28;20191;-78
2021/03/22 01:13:21;;;;;;;11.90;8.27;;;;;;;4.48;100.00;100633.78;5049134;28;20665;-79
2021/03/22 01:15:47;;;;;;;14.87;8.33;;;;;;;4.47;100.00;100631.25;5046908;28;20427;-78
2021/03/22 01:18:15;;;;;;;15.87;8.17;;;;;;;4.50;100.00;100637.16;5067847;28;20415;-72
2021/03/22 01:20:51;;;;;;;11.10;8.20;;;;;;;4.47;100.00;100620.84;5071803;28;20399;-80
2021/03/22 01:23:17;;;;;;;11.90;7.90;;;;;;;4.48;100.00;100604.34;5068401;28;20443;-78
2021/03/22 01:25:43;;;;;;;8.67;6.50;;;;;;;4.50;100.00;100589.50;5068174;28;20418;-79
2021/03/22 01:28:16;;;;;;;14.40;7.97;;;;;;;4.47;100.00;100574.88;5073979;28;20195;-77
2021/03/22 01:30:57;;;;;;;12.93;8.53;;;;;;;4.54;100.00;100565.06;5071093;28;21037;-73
2021/03/22 01:33:26;;;;;;;12.10;8.33;;;;;;;4.55;100.00;100567.56;5073755;28;20415;-79
2021/03/22 01:36:01;;;;;;;10.70;7.53;;;;;;;4.51;100.00;100560.81;5074543;28;20402;-83
2021/03/22 01:38:27;;;;;;;10.90;7.30;;;;;;;4.44;100.00;100555.03;5071487;28;20812;-79
2021/03/22 01:41:27;;;;;;;9.73;6.73;;;;;;;4.55;100.00;100540.72;5069762;28;20453;-73
2021/03/22 01:44:25;;;;;;;12.93;7.57;;;;;;;4.50;100.00;100547.88;5052653;28;20473;-75
2021/03/22 01:46:54;;;;;;;14.90;7.73;;;;;;;4.48;100.00;100532.34;5072138;28;20472;-83
2021/03/22 01:49:21;;;;;;;10.43;6.90;;;;;;;4.50;100.00;100517.50;5071800;28;20867;-83
2021/03/22 01:51:48;;;;;;;10.70;7.70;;;;;;;4.48;100.00;100510.69;5072611;28;20477;-85
2021/03/22 01:54:13;;;;;;;11.83;6.50;;;;;;;4.49;100.00;100495.00;5073137;28;20394;-84
2021/03/22 01:56:50;;;;;;;11.90;7.60;;;;;;;4.50;100.00;100496.69;5072716;28;20989;-81
2021/03/22 01:59:28;;;;;;;9.87;7.30;;;;;;;4.54;100.00;100489.63;5072185;28;20769;-74
2021/03/22 02:01:59;;;;;;;10.20;7.20;;;;;;;4.51;100.00;100493.19;5072602;28;20410;-81
2021/03/22 02:04:26;;;;;;;11.97;7.50;;;;;;;4.56;100.00;100493.81;5068027;28;20451;-82
2021/03/22 02:06:51;;;;;;;9.10;7.17;;;;;;;4.54;100.00;100495.66;5052019;28;20463;-82
2021/03/22 02:09:17;;;;;;;18.13;7.60;;;;;;;4.55;100.00;100489.53;5052103;28;20403;-82
2021/03/22 02:11:42;;;;;;;11.37;8.07;;;;;;;4.56;100.00;100490.38;5069163;28;20179;-83
2021/03/22 02:14:10;;;;;;;12.03;6.97;;;;;;;4.62;100.00;100484.91;5059447;28;20223;-83
2021/03/22 02:16:57;;;;;;;9.93;7.53;;;;;;;4.67;100.00;100467.28;5052163;28;20168;-82
2021/03/22 02:19:29;;;;;;;11.40;6.63;;;;;;;4.66;100.00;100457.81;5065088;28;20448;-75
2021/03/22 02:22:31;;;;;;;11.27;6.60;;;;;;;4.63;100.00;100447.56;5073045;28;20402;-80
2021/03/22 02:25:03;;;;;;;10.60;7.90;;;;;;;4.63;100.00;100432.78;5075439;28;20456;-81
2021/03/22 02:28:08;;;;;;;10.80;6.40;;;;;;;4.63;100.00;100445.78;5074825;28;20473;-77
2021/03/22 02:31:10;;;;;;;11.47;6.80;;;;;;;4.67;100.00;100430.88;5075483;28;20452;-80
2021/03/22 02:33:41;;;;;;;11.50;7.57;;;;;;;4.59;100.00;100418.22;5075383;28;20394;-79
2021/03/22 02:36:08;;;;;;;14.97;6.93;;;;;;;4.62;100.00;100410.28;5075430;28;20402;-80
2021/03/22 02:38:40;;;;;;;13.50;7.07;;;;;;;4.66;100.00;100440.44;5074010;28;20504;-80
2021/03/22 02:41:16;;;;;;;10.50;7.10;;;;;;;4.71;100.00;100433.25;5074699;28;20434;-82
2021/03/22 02:43:41;;;;;;;11.00;7.60;;;;;;;4.71;100.00;100441.06;5074728;28;20441;-80
2021/03/22 02:46:08;;;;;;;13.13;7.50;;;;;;;4.73;100.00;100425.38;5075187;28;20452;-80
2021/03/22 02:48:38;;;;;;;17.90;8.63;;;;;;;4.71;100.00;100406.41;5075084;28;20164;-78
2021/03/22 02:51:35;;;;;;;10.63;7.67;;;;;;;4.71;100.00;100403.81;5074381;28;20434;-80
2021/03/22 02:54:09;;;;;;;12.63;7.90;;;;;;;4.74;100.00;100399.28;5053533;28;20418;-81
2021/03/22 02:56:52;;;;;;;10.90;7.97;;;;;;;4.74;100.00;100401.88;5074743;28;20471;-79
2021/03/22 02:59:22;;;;;;;10.40;7.07;;;;;;;4.71;100.00;100409.00;5074625;28;20481;-80
2021/03/22 03:01:59;;;;;;;10.03;7.37;;;;;;;4.75;100.00;100402.72;5074853;28;20391;-76
2021/03/22 03:04:25;;;;;;;12.73;7.47;;;;;;;4.81;100.00;100405.03;5074440;28;20963;-74
2021/03/22 03:06:55;;;;;;;10.93;6.90;;;;;;;4.73;100.00;100405.41;5060837;28;20884;-78
2021/03/22 03:09:25;;;;;;;10.00;6.90;;;;;;;4.72;100.00;100398.53;5074759;28;20494;-80
2021/03/22 03:11:52;;;;;;;16.47;7.67;;;;;;;4.75;100.00;100400.13;5074537;28;20493;-81
2021/03/22 03:14:18;;;;;;;12.90;8.33;;;;;;;4.81;100.00;100397.22;5074860;28;20457;-79
2021/03/22 03:16:43;;;;;;;9.43;6.37;;;;;;;4.84;100.00;100381.47;5074407;28;20485;-80
2021/03/22 03:19:10;;;;;;;12.50;7.10;;;;;;;4.86;100.00;100368.38;5074388;28;20502;-82
2021/03/22 03:21:36;;;;;;;10.67;6.90;;;;;;;4.82;100.00;100357.25;5074198;28;20616;-82
2021/03/22 03:24:05;;;;;;;11.40;7.60;;;;;;;4.83;100.00;100361.56;5074318;28;20528;-79
2021/03/22 03:26:30;;;;;;;10.97;7.70;;;;;;;4.81;100.00;100354.75;5069285;28;20411;-83
2021/03/22 03:28:56;;;;;;;12.00;8.30;;;;;;;4.83;100.00;100352.91;5074122;28;20446;-81
2021/03/22 03:31:21;;;;;;;8.80;6.30;;;;;;;4.92;100.00;100348.09;5074196;28;20170;-81
2021/03/22 03:33:47;;;;;;;12.60;7.37;;;;;;;4.93;100.00;100341.13;5074185;28;20171;-81
2021/03/22 03:36:12;;;;;;;12.73;8.07;;;;;;;4.92;100.00;100345.50;5074070;28;20259;-82
2021/03/22 03:38:38;;;;;;;13.03;7.10;;;;;;;4.99;100.00;100336.47;5074876;28;20168;-82
2021/03/22 03:41:04;;;;;;;11.33;7.90;;;;;;;5.00;100.00;100332.09;5074206;28;20600;-83
2021/03/22 03:43:29;;;;;;;9.60;7.53;;;;;;;4.96;100.00;100331.41;5074108;28;20224;-83
2021/03/22 03:45:55;;;;;;;10.20;7.37;;;;;;;4.96;100.00;100339.22;5074585;28;20162;-84
2021/03/22 03:48:24;;;;;;;10.93;7.37;;;;;;;4.88;100.00;100341.34;5074679;28;20168;-84
2021/03/22 03:51:00;;;;;;;9.97;6.90;;;;;;;4.95;100.00;100342.75;5074315;28;20176;-83
2021/03/22 03:53:27;;;;;;;12.40;7.20;;;;;;;5.02;100.00;100330.25;5074256;28;20434;-82
2021/03/22 03:55:55;;;;;;;9.00;6.97;;;;;;;5.00;100.00;100332.09;5073810;28;20438;-73
2021/03/22 03:58:21;;;;;;;9.97;6.80;;;;;;;5.08;100.00;100331.72;5074196;28;20413;-80
2021/03/22 04:00:48;;;;;;;13.30;8.20;;;;;;;5.03;100.00;100331.94;5070095;28;20486;-81
2021/03/22 04:03:14;;;;;;;13.97;7.20;;;;;;;4.99;100.00;100331.25;5063684;28;20164;-83
2021/03/22 04:05:39;;;;;;;14.43;7.57;;;;;;;5.03;100.00;100336.31;5072976;28;20415;-76
2021/03/22 04:08:05;;;;;;;8.93;6.93;;;;;;;5.05;100.00;100326.66;5072834;28;20208;-79
2021/03/22 04:10:31;;;;;;;11.53;7.07;;;;;;;5.03;100.00;100320.69;5072683;28;20255;-80
2021/03/22 04:12:57;;;;;;;16.03;7.40;;;;;;;5.04;100.00;100311.94;5072840;28;20172;-74
2021/03/22 04:15:22;;;;;;;11.27;7.00;;;;;;;5.19;100.00;100301.59;5073326;28;20179;-75
2021/03/22 04:17:48;;;;;;;10.70;6.63;;;;;;;5.16;100.00;100291.34;5073137;28;20395;-79
2021/03/22 04:20:16;;;;;;;10.70;6.50;;;;;;;5.15;100.00;100307.91;5072984;28;20172;-77
2021/03/22 04:22:41;;;;;;;10.07;7.20;;;;;;;5.27;100.00;100309.84;5073075;28;20164;-81
2021/03/22 04:25:07;;;;;;;17.27;6.70;;;;;;;5.27;100.00;100304.63;5072900;28;20446;-79
2021/03/22 04:27:33;;;;;;;10.30;7.07;;;;;;;5.29;100.00;100289.78;5072464;28;20816;-79
2021/03/22 04:29:58;;;;;;;10.57;6.80;;;;;;;5.32;100.00;100296.59;5072370;28;20454;-80
2021/03/22 04:32:24;;;;;;;9.77;6.20;;;;;;;5.36;100.00;100284.25;5064148;28;20216;-80
2021/03/22 04:34:49;;;;;;;13.60;7.50;;;;;;;5.43;100.00;100293.41;5052843;28;20256;-78
2021/03/22 04:37:15;;;;;;;10.10;6.17;;;;;;;5.46;100.00;100282.84;5063923;28;20164;-79
2021/03/22 04:39:40;;;;;;;11.87;6.30;;;;;;;5.44;100.00;100287.28;5072556;28;20177;-78
2021/03/22 04:42:06;;;;;;;10.13;7.47;;;;;;;5.43;100.00;100288.22;5071969;28;20160;-79
2021/03/22 04:44:32;;;;;;;9.73;6.23;;;;;;;5.43;100.00;100270.81;5072225;28;20286;-79
2021/03/22 04:46:58;;;;;;;11.10;7.20;;;;;;;5.49;100.00;100280.06;5070526;28;20642;-77
2021/03/22 04:49:23;;;;;;;12.53;6.17;;;;;;;5.51;100.00;100273.00;5072057;28;20422;-79
2021/03/22 04:51:49;;;;;;;8.60;6.43;;;;;;;5.67;100.00;100276.50;5072186;28;20638;-77
2021/03/22 04:54:14;;;;;;;9.33;6.50;;;;;;;5.61;100.00;100275.97;5072096;28;20524;-77
2021/03/22 04:56:41;;;;;;;13.00;7.60;;;;;;;5.57;100.00;100264.88;5072589;28;20575;-79
2021/03/22 04:59:06;;;;;;;11.43;7.23;;;;;;;5.56;100.00;100268.41;5072802;28;20156;-79
2021/03/22 05:01:32;;;;;;;14.57;7.37;;;;;;;5.61;100.00;100276.81;5071177;28;20430;-81
2021/03/22 05:03:57;;;;;;;11.73;7.30;;;;;;;5.64;100.00;100273.19;5072366;28;20662;-82
2021/03/22 05:06:24;;;;;;;10.70;7.97;;;;;;;5.74;100.00;100266.56;5071795;28;20160;-81
2021/03/22 05:08:50;;;;;;;9.53;6.90;;;;;;;5.69;100.00;100279.84;5072320;28;20221;-74
2021/03/22 05:11:18;;;;;;;9.00;6.20;;;;;;;5.70;100.00;100280.69;5072610;28;20406;-78
2021/03/22 05:13:45;;;;;;;11.50;6.60;;;;;;;5.75;100.00;100274.31;5071386;28;20895;-82
2021/03/22 05:16:13;;;;;;;13.00;7.30;;;;;;;5.79;100.00;100274.97;5072527;28;20891;-82
2021/03/22 05:18:39;;;;;;;15.73;6.87;;;;;;;5.70;100.00;100263.28;5072690;28;20390;-81
2021/03/22 05:21:07;;;;;;;16.10;5.93;;;;;;;5.78;100.00;100266.31;5072224;28;20395;-79
2021/03/22 05:23:35;;;;;;;9.63;6.07;;;;;;;5.79;100.00;100256.72;5072289;28;20442;-81
2021/03/22 05:26:01;;;;;;;12.40;7.20;;;;;;;5.84;100.00;100250.34;5070921;28;20414;-77
2021/03/22 05:28:30;;;;;;;11.37;6.10;;;;;;;5.87;100.00;100249.31;5072005;28;20435;-81
2021/03/22 05:30:56;;;;;;;9.67;5.63;;;;;;;5.98;100.00;100252.22;5068272;28;20446;-82
2021/03/22 05:33:23;;;;;;;12.97;6.43;;;;;;;5.92;100.00;100251.72;5067029;28;20407;-75
2021/03/22 05:35:52;;;;;;;13.70;6.40;;;;;;;5.92;100.00;100251.72;5071777;28;20410;-81
2021/03/22 05:38:18;;;;;;;10.67;6.80;;;;;;;5.88;100.00;100244.94;5072159;28;20407;-79
2021/03/22 05:40:51;;;;;;;14.87;6.67;;;;;;;5.95;100.00;100231.53;5072018;28;20769;-78
2021/03/22 05:43:39;;;;;;;12.37;7.07;;;;;;;5.94;100.00;100224.63;5071631;28;20167;-82
2021/03/22 05:46:33;;;;;;;16.40;7.40;;;;;;;5.98;100.00;100233.13;5022287;28;20488;-78
2021/03/22 05:49:08;;;;;;;11.40;7.53;;;;;;;6.02;100.00;100232.88;5052222;28;20431;-75
2021/03/22 05:52:01;;;;;;;25.90;14.73;;;;;;;6.06;100.00;100229.16;5071461;28;20493;-81
2021/03/22 05:54:50;;;;;;;11.80;7.40;;;;;;;6.16;100.00;100216.44;5052036;28;20479;-81
2021/03/22 05:57:31;;;;;;;9.40;6.50;;;;;;;6.18;100.00;100208.53;5055268;28;20394;-81
2021/03/22 06:00:46;;;;;;;12.60;6.40;;;;;;;6.09;100.00;100205.50;5056351;28;20775;-78
2021/03/22 06:03:30;;;;;;;11.53;6.57;;;;;;;6.12;100.00;100209.69;4998947;28;20450;-80
2021/03/22 06:06:05;;;;;;;10.23;6.87;;;;;;;6.09;100.00;100207.28;5060801;28;20413;-79
2021/03/22 06:08:39;;;;;;;14.60;7.77;;;;;;;6.08;100.00;100208.22;5073560;28;21006;-80
2021/03/22 06:11:36;;;;;;;16.50;7.70;;;;;;;6.16;100.00;100219.06;5074976;28;20411;-81
2021/03/22 06:14:14;;;;;;;10.17;7.27;;;;;;;6.11;100.00;100211.47;5047738;28;20423;-83
2021/03/22 06:16:47;;;;;;;13.33;8.00;;;;;;;6.06;100.00;100217.91;5037256;28;20414;-81
2021/03/22 06:19:16;;;;;;;11.70;7.17;;;;;;;6.03;100.00;100212.84;5070045;28;20411;-80
2021/03/22 06:21:47;;;;;;;10.73;7.30;;;;;;;5.99;100.00;100213.97;5074550;28;20824;-80
2021/03/22 06:24:19;;;;;;;11.90;7.53;;;;;;;5.90;100.00;100214.44;5074700;28;20456;-79
2021/03/22 06:26:48;;;;;;;15.10;8.67;;;;;;;5.86;100.00;100213.75;5074294;28;22296;-83
2021/03/22 06:29:24;;;;;;;12.47;6.93;;;;;;;5.77;100.00;100212.50;5072934;28;20406;-77
2021/03/22 06:31:54;;;;;;;11.67;7.73;;;;;;;5.73;100.00;100229.22;5074123;28;20497;-81
2021/03/22 06:34:52;;;;;;;13.70;7.97;;;;;;;5.56;100.00;100218.91;5074845;28;20467;-76
2021/03/22 06:37:21;;;;;;;14.30;8.00;;;;;;;5.62;100.00;100218.56;5069660;28;20493;-78
2021/03/22 06:39:51;;;;;;;12.37;7.77;;;;;;;5.62;100.00;100236.81;5074552;28;20403;-77
2021/03/22 06:42:23;;;;;;;13.97;8.77;;;;;;;5.53;100.00;100224.28;5074331;28;20813;-78
2021/03/22 06:44:50;;;;;;;13.40;8.60;;;;;;;5.60;100.00;100228.25;5073143;28;20442;-80
2021/03/22 06:47:15;;;;;;;16.40;10.47;;;;;;;5.58;100.00;100227.47;5072352;28;20399;-81
2021/03/22 06:49:43;;;;;;;11.07;7.17;;;;;;;5.56;100.00;100211.09;5072853;28;20411;-77
2021/03/22 06:52:14;;;;;;;12.50;8.37;;;;;;;5.60;100.00;100212.59;5070795;28;20164;-78
2021/03/22 06:54:52;;;;;;;9.80;7.60;;;;;;;5.64;100.00;100205.44;5071743;28;20460;-75
2021/03/22 06:57:23;;;;;;;14.00;8.90;;;;;;;5.71;100.00;100207.63;5074031;28;20402;-76
2021/03/22 07:00:04;;;;;;;17.67;9.87;;;;;;;5.61;100.00;100211.69;5072681;28;20403;-79
2021/03/22 07:02:40;;;;;;;9.57;6.87;;;;;;;5.63;100.00;100194.19;5072214;28;20407;-80
2021/03/22 07:05:29;;;;;;;10.87;7.80;;;;;;;5.61;100.00;100180.41;5068597;28;20975;-80
2021/03/22 07:07:57;;;;;;;9.50;7.50;;;;;;;5.61;100.00;100177.81;5070770;28;20450;-79
2021/03/22 07:10:28;;;;;;;13.37;8.20;;;;;;;5.69;100.00;100180.81;5072879;28;20820;-80
2021/03/22 07:13:22;;;;;;;13.43;8.90;;;;;;;5.57;100.00;100173.69;5070826;28;20398;-77
2021/03/22 07:15:50;;;;;;;13.73;8.23;;;;;;;5.60;100.00;100162.25;5072617;28;20818;-79
2021/03/22 07:18:28;;;;;;;13.10;7.60;;;;;;;5.72;100.00;100162.41;5072150;28;20395;-80
2021/03/22 07:20:54;;;;;;;10.90;7.03;;;;;;;5.62;100.00;100148.22;5070558;28;20433;-78
2021/03/22 07:23:22;;;;;;;14.90;6.67;;;;;;;5.71;100.00;100147.69;5071888;28;20601;-78
2021/03/22 07:26:06;;;;;;;12.77;6.73;;;;;;;5.71;100.00;100150.31;5072627;28;20229;-77
2021/03/22 07:28:53;;;;;;;9.03;6.67;;;;;;;5.74;100.00;100150.16;5072046;28;20809;-78
2021/03/22 07:31:38;;;;;;;10.83;6.93;;;;;;;5.74;100.00;100144.06;5055464;28;20422;-79
2021/03/22 07:34:22;;;;;;;9.47;6.70;;;;;;;5.84;100.00;100143.47;5072177;28;20398;-79
2021/03/22 07:37:05;;;;;;;11.87;6.07;;;;;;;5.88;100.00;100143.28;5072094;28;20766;-78
2021/03/22 07:40:01;;;;;;;7.90;5.60;;;;;;;5.91;100.00;100146.59;5069929;28;20391;-77
2021/03/22 07:42:49;;;;;;;7.73;6.17;;;;;;;5.98;100.00;100142.72;5072032;28;20464;-80
2021/03/22 07:45:27;;;;;;;8.83;5.67;;;;;;;5.96;100.00;100154.16;5072906;28;20482;-81
2021/03/22 07:48:25;;;;;;;9.67;6.23;;;;;;;6.00;100.00;100150.44;5072801;28;20754;-77
2021/03/22 07:51:02;;;;;;;8.27;5.37;;;;;;;5.93;100.00;100154.34;5071162;28;20426;-79
2021/03/22 07:53:32;;;;;;;9.03;5.50;;;;;;;5.82;100.00;100155.75;5072294;28;20558;-78
2021/03/22 07:56:23;;;;;;;9.67;7.17;;;;;;;5.83;100.00;100154.00;5072430;28;20434;-77
2021/03/22 07:58:59;;;;;;;9.13;6.07;;;;;;;5.90;100.00;100165.75;5071306;28;20463;-79
2021/03/22 08:01:55;;;;;;;8.30;5.70;;;;;;;5.96;100.00;100169.78;5072114;28;20469;-80
2021/03/22 08:04:42;;;;;;;8.13;5.40;;;;;;;5.89;100.00;100153.63;5072033;28;20894;-80
2021/03/22 08:07:16;;;;;;;8.70;6.30;;;;;;;5.91;100.00;100148.38;5054242;28;20565;-78
2021/03/22 08:10:03;;;;;;;7.23;6.20;;;;;;;5.96;100.00;100151.53;5072468;28;20907;-80
2021/03/22 08:12:48;;;;;;;7.43;4.93;;;;;;;5.96;100.00;100139.34;5072476;28;20478;-79
2021/03/22 08:15:41;;;;;;;7.10;5.00;;;;;;;5.90;100.00;100147.50;5072460;28;20403;-74
2021/03/22 08:18:31;;;;;;;6.20;4.43;;;;;;;5.82;100.00;100147.94;5073073;28;20912;-77
2021/03/22 08:21:31;;;;;;;7.20;4.10;;;;;;;5.68;100.00;100145.28;5070517;28;20414;-79
2021/03/22 08:24:22;;;;;;;5.77;4.20;;;;;;;5.54;100.00;100145.19;5072613;28;20458;-79
2021/03/22 08:27:20;;;;;;;5.63;3.97;;;;;;;5.46;100.00;100142.19;5065522;28;20460;-80
2021/03/22 08:29:55;;;;;;;7.30;4.90;;;;;;;5.60;100.00;100131.00;5070636;28;20480;-79
2021/03/22 08:32:26;;;;;;;9.30;4.83;;;;;;;5.40;100.00;100121.69;5072706;28;20402;-81
2021/03/22 08:35:02;;;;;;;6.27;3.90;;;;;;;5.40;100.00;100121.69;5071366;28;20510;-79
2021/03/22 08:37:38;;;;;;;6.87;4.60;;;;;;;5.21;100.00;100112.28;5072275;28;20403;-78
2021/03/22 08:40:15;;;;;;;8.67;4.70;;;;;;;5.16;100.00;100132.50;5072626;28;20391;-81
2021/03/22 08:42:52;;;;;;;6.97;4.50;;;;;;;5.07;100.00;100130.41;5072426;28;20481;-79
2021/03/22 08:45:30;;;;;;;6.80;3.90;;;;;;;4.88;100.00;100129.72;5053563;28;20450;-81
2021/03/22 08:48:34;;;;;;;8.53;4.50;;;;;;;4.90;100.00;100139.09;5071925;28;20516;-79
2021/03/22 08:51:04;;;;;;;7.27;4.37;;;;;;;4.85;100.00;100127.28;4971029;28;20458;-79
2021/03/22 08:53:41;;;;;;;6.40;4.27;;;;;;;4.75;100.00;100137.31;4983753;28;20498;-79
2021/03/22 08:56:30;;;;;;;10.00;3.80;;;;;;;4.74;100.00;100128.66;5045316;28;20422;-79
2021/03/22 08:59:00;;;;;;;5.63;3.87;;;;;;;4.72;100.00;100133.13;5069578;28;20407;-79
2021/03/22 09:01:36;;;;;;;3.73;2.47;;;;;;;4.70;100.00;100128.94;5052043;28;20561;-77
2021/03/22 09:04:20;;;;;;;3.60;2.50;;;;;;;4.54;100.00;100130.66;5070835;28;20489;-79
2021/03/22 09:07:21;;;;;;;5.10;3.00;;;;;;;4.48;100.00;100117.97;5071322;28;20454;-81
2021/03/22 09:09:48;;;;;;;3.53;2.63;;;;;;;4.37;100.00;100140.13;5054783;28;20402;-79
2021/03/22 09:12:42;;;;;;;3.77;2.10;;;;;;;4.39;100.00;100122.72;5071771;28;20784;-78
2021/03/22 09:15:31;;;;;;;4.20;3.00;;;;;;;4.12;100.00;100109.34;5066552;28;20780;-84
2021/03/22 09:18:02;;;;;;;4.17;2.63;;;;;;;4.16;100.00;100108.28;5071407;28;20411;-81
2021/03/22 09:20:47;;;;;;;3.90;2.77;;;;;;;4.16;100.00;100099.66;5070829;28;20419;-80
2021/03/22 09:23:36;;;;;;;3.37;2.20;;;;;;;4.16;100.00;100095.28;5070416;28;20411;-71
2021/03/22 09:26:06;;;;;;;3.57;2.13;;;;;;;4.22;100.00;100099.31;5058123;28;20963;-79
2021/03/22 09:28:39;;;;;;;3.80;2.37;;;;;;;4.21;100.00;100089.84;5070533;28;20460;-81
2021/03/22 09:31:16;;;;;;;3.57;2.17;;;;;;;4.21;100.00;100094.19;5070209;28;20415;-77
2021/03/22 09:33:59;;;;;;;7.03;2.17;;;;;;;4.29;100.00;100092.03;5058278;28;20407;-80
2021/03/22 09:36:35;;;;;;;3.40;2.30;;;;;;;4.26;100.00;100076.63;5073182;28;20414;-77
2021/03/22 09:39:05;;;;;;;2.93;1.80;;;;;;;4.38;100.00;100086.38;5070464;28;20406;-79
2021/03/22 09:42:12;;;;;;;2.70;1.70;;;;;;;4.51;100.00;100082.22;5070893;28;20486;-78
2021/03/22 09:44:57;;;;;;;5.00;3.60;;;;;;;4.60;100.00;100080.88;4970001;28;20470;-72
2021/03/22 09:48:03;;;;;;;3.10;1.70;;;;;;;4.51;100.00;100097.81;4969650;28;20447;-80
2021/03/22 09:50:31;;;;;;;4.73;2.23;;;;;;;4.36;100.00;100101.22;5059037;28;20431;-78
2021/03/22 09:52:56;;;;;;;33.70;31.50;;;;;;;4.17;100.00;100096.13;5069535;28;20407;-78
2021/03/22 09:55:28;;;;;;;7.83;6.00;;;;;;;4.02;100.00;100089.09;5070693;28;20419;-73
2021/03/22 09:58:16;;;;;;;4.43;2.30;;;;;;;3.90;100.00;100100.94;5070814;28;20160;-80
2021/03/22 10:00:41;;;;;;;3.53;2.00;;;;;;;3.89;100.00;100100.09;5068536;28;20434;-74
2021/03/22 10:03:35;;;;;;;3.10;1.70;;;;;;;3.93;100.00;100077.41;5070569;28;20786;-76
2021/03/22 10:06:05;;;;;;;5.00;2.40;;;;;;;3.86;100.00;100089.88;5070713;28;20164;-72
2021/03/22 10:08:43;;;;;;;4.53;3.73;;;;;;;3.78;100.00;100086.81;5069850;28;20439;-79
2021/03/22 10:11:25;;;;;;;7.13;1.90;;;;;;;3.84;100.00;100094.28;5071003;28;20798;-79
2021/03/22 10:13:59;;;;;;;2.83;1.63;;;;;;;3.80;100.00;100089.34;5070559;28;20489;-81
2021/03/22 10:16:34;;;;;;;4.00;2.20;;;;;;;3.66;100.00;100097.78;5070355;28;20387;-79
2021/03/22 10:19:22;;;;;;;3.90;1.90;;;;;;;3.63;100.00;100108.34;5070708;28;20406;-77
2021/03/22 10:21:50;;;;;;;2.70;1.40;;;;;;;3.61;100.00;100099.75;5069974;28;20426;-75
2021/03/22 10:24:42;;;;;;;3.40;2.30;;;;;;;3.51;100.00;100122.75;5070396;28;20442;-77
2021/03/22 10:27:27;;;;;;;4.77;2.83;;;;;;;3.47;100.00;100108.22;5070692;28;20426;-79
2021/03/22 10:30:19;;;;;;;3.57;2.13;;;;;;;3.40;100.00;100104.25;5069591;28;20396;-78
2021/03/22 10:33:01;;;;;;;3.13;1.77;;;;;;;3.30;100.00;100098.63;5070480;28;20781;-78
2021/03/22 10:35:38;;;;;;;4.63;2.67;;;;;;;3.36;100.00;100107.91;5069675;28;20842;-77
2021/03/22 10:38:03;;;;;;;3.63;2.10;;;;;;;3.33;100.00;100119.28;5062320;28;20488;-79
2021/03/22 10:40:39;;;;;;;4.77;2.57;;;;;;;3.31;100.00;100107.25;5065612;28;20410;-75
2021/03/22 10:43:06;;;;;;;4.07;2.10;;;;;;;3.28;100.00;100118.66;5074657;28;20213;-76
2021/03/22 10:45:43;;;;;;;4.60;2.70;;;;;;;3.26;100.00;100099.72;5070407;28;20446;-76
2021/03/22 10:48:33;;;;;;;5.00;2.60;;;;;;;3.42;100.00;100088.59;5073592;28;20429;-73
2021/03/22 10:51:10;;;;;;;4.97;2.87;;;;;;;3.41;100.00;100081.72;5055350;28;20404;-78
2021/03/22 10:54:01;;;;;;;5.07;3.07;;;;;;;3.40;100.00;100056.66;5057658;28;20828;-76
2021/03/22 10:56:39;;;;;;;5.60;2.60;;;;;;;3.35;100.00;100059.50;5055098;28;20798;-77
2021/03/22 10:59:28;;;;;;;4.30;2.40;;;;;;;3.37;100.00;100054.22;5061279;28;20402;-76
2021/03/22 11:01:56;;;;;;;3.70;2.00;;;;;;;3.39;100.00;100026.41;5066910;28;20466;-73
2021/03/22 11:04:37;;;;;;;4.40;3.40;;;;;;;3.39;100.00;100027.25;5072268;28;20481;-77
2021/03/22 11:07:18;;;;;;;6.57;3.80;;;;;;;3.56;100.00;100016.06;5072760;28;20450;-76
2021/03/22 11:09:51;;;;;;;4.27;3.87;;;;;;;3.65;100.00;100004.38;5070995;28;20445;-76
2021/03/22 11:12:17;;;;;;;5.03;4.03;;;;;;;3.55;100.00;100006.56;5070657;28;20411;-74
2021/03/22 11:14:43;;;;;;;5.23;3.50;;;;;;;3.64;100.00;100010.50;5072722;28;20395;-77
2021/03/22 11:17:16;;;;;;;3.97;2.87;;;;;;;3.81;100.00;99993.13;5073171;28;20593;-75
2021/03/22 11:19:44;;;;;;;4.87;3.27;;;;;;;3.88;100.00;100004.06;5073082;28;20406;-78
2021/03/22 11:22:25;;;;;;;5.43;4.10;;;;;;;4.01;100.00;99976.53;5072379;28;20833;-78
2021/03/22 11:24:54;;;;;;;3.80;2.00;;;;;;;4.08;100.00;100006.47;5069440;28;20469;-75
2021/03/22 11:27:19;;;;;;;3.30;2.10;;;;;;;4.32;100.00;100003.50;5071558;28;20991;-74
2021/03/22 11:29:56;;;;;;;5.90;2.80;;;;;;;4.43;100.00;100007.19;5071866;28;20428;-77
2021/03/22 11:32:25;;;;;;;3.93;2.23;;;;;;;4.71;100.00;99998.75;5080296;28;20160;-77
2021/03/22 11:34:54;;;;;;;3.50;2.37;;;;;;;4.96;100.00;99994.78;5065927;28;20398;-77
2021/03/22 11:37:25;;;;;;;4.07;3.07;;;;;;;4.88;100.00;99992.63;5070170;28;20419;-77
2021/03/22 11:40:19;;;;;;;4.13;2.43;;;;;;;4.88;100.00;99976.16;5072250;28;20406;-78
2021/03/22 11:43:04;;;;;;;5.53;2.60;;;;;;;4.82;100.00;100002.53;5072440;28;20490;-77
2021/03/22 11:45:35;;;;;;;6.07;2.43;;;;;;;5.08;100.00;99996.72;5072482;28;20860;-79
2021/03/22 11:48:01;;;;;;;4.00;2.40;;;;;;;4.81;100.00;100016.47;5072360;28;20806;-77
2021/03/22 11:50:38;;;;;;;3.87;2.00;;;;;;;4.84;100.00;100018.91;5071825;28;20415;-78
2021/03/22 11:53:22;;;;;;;4.17;2.20;;;;;;;4.74;100.00;100019.38;5072643;28;20521;-75
2021/03/22 11:55:54;;;;;;;4.43;2.47;;;;;;;4.87;100.00;99996.16;5069120;28;20845;-76